sensor_id;sensor_type;location;lat;lon;timestamp;P1;durP1;ratioP1;P2;durP2;ratioP2
77955;SDS011;67152;36.266;32.294;2023-02-28T00:00:34;17.85;;;6.50;;
77955;SDS011;67152;36.266;32.294;2023-02-28T00:03:02;8.88;;;5.63;;
77955;SDS011;67152;36.266;32.294;2023-02-28T00:05:29;15.40;;;6.53;;
77955;SDS011;67152;36.266;32.294;2023-02-28T00:07:56;16.17;;;6.25;;
77955;SDS011;67152;36.266;32.294;2023-02-28T00:10:25;11.87;;;6.60;;
77955;SDS011;67152;36.266;32.294;2023-02-28T00:12:54;17.65;;;8.18;;
77955;SDS011;67152;36.266;32.294;2023-02-28T00:15:22;16.38;;;6.80;;
77955;SDS011;67152;36.266;32.294;2023-02-28T00:17:50;8.85;;;4.55;;
77955;SDS011;67152;36.266;32.294;2023-02-28T00:20:17;16.83;;;7.38;;
77955;SDS011;67152;36.266;32.294;2023-02-28T00:22:45;15.55;;;8.00;;
77955;SDS011;67152;36.266;32.294;2023-02-28T00:25:14;9.55;;;5.97;;
77955;SDS011;67152;36.266;32.294;2023-02-28T00:27:42;9.88;;;6.20;;
77955;SDS011;67152;36.266;32.294;2023-02-28T00:30:13;12.90;;;6.63;;
77955;SDS011;67152;36.266;32.294;2023-02-28T00:32:42;12.05;;;6.15;;
77955;SDS011;67152;36.266;32.294;2023-02-28T00:35:09;12.67;;;6.23;;
77955;SDS011;67152;36.266;32.294;2023-02-28T00:37:36;12.63;;;7.10;;
77955;SDS011;67152;36.266;32.294;2023-02-28T00:40:03;10.90;;;6.22;;
77955;SDS011;67152;36.266;32.294;2023-02-28T00:42:32;13.35;;;7.43;;
77955;SDS011;67152;36.266;32.294;2023-02-28T00:45:00;10.43;;;6.32;;
77955;SDS011;67152;36.266;32.294;2023-02-28T00:47:27;13.23;;;6.00;;
77955;SDS011;67152;36.266;32.294;2023-02-28T00:49:54;12.07;;;6.15;;
77955;SDS011;67152;36.266;32.294;2023-02-28T00:52:20;13.48;;;7.57;;
77955;SDS011;67152;36.266;32.294;2023-02-28T00:54:47;12.45;;;5.95;;
77955;SDS011;67152;36.266;32.294;2023-02-28T00:57:14;13.25;;;6.68;;
77955;SDS011;67152;36.266;32.294;2023-02-28T00:59:40;13.40;;;6.28;;
77955;SDS011;67152;36.266;32.294;2023-02-28T01:02:07;15.00;;;5.22;;
77955;SDS011;67152;36.266;32.294;2023-02-28T01:04:34;14.40;;;5.60;;
77955;SDS011;67152;36.266;32.294;2023-02-28T01:07:01;9.45;;;5.95;;
77955;SDS011;67152;36.266;32.294;2023-02-28T01:09:48;12.57;;;5.40;;
77955;SDS011;67152;36.266;32.294;2023-02-28T01:12:15;15.07;;;5.97;;
77955;SDS011;67152;36.266;32.294;2023-02-28T01:14:42;13.32;;;6.45;;
77955;SDS011;67152;36.266;32.294;2023-02-28T01:17:09;12.80;;;6.10;;
77955;SDS011;67152;36.266;32.294;2023-02-28T01:19:35;10.23;;;5.85;;
77955;SDS011;67152;36.266;32.294;2023-02-28T01:22:03;14.15;;;6.93;;
77955;SDS011;67152;36.266;32.294;2023-02-28T01:24:30;9.77;;;6.00;;
77955;SDS011;67152;36.266;32.294;2023-02-28T01:26:57;10.88;;;6.50;;
77955;SDS011;67152;36.266;32.294;2023-02-28T01:29:24;10.68;;;5.25;;
77955;SDS011;67152;36.266;32.294;2023-02-28T01:31:51;9.82;;;4.78;;
77955;SDS011;67152;36.266;32.294;2023-02-28T01:34:18;9.30;;;5.00;;
77955;SDS011;67152;36.266;32.294;2023-02-28T01:36:47;15.02;;;5.32;;
77955;SDS011;67152;36.266;32.294;2023-02-28T01:39:14;12.45;;;5.82;;
77955;SDS011;67152;36.266;32.294;2023-02-28T01:41:41;14.80;;;4.88;;
77955;SDS011;67152;36.266;32.294;2023-02-28T01:47:13;8.80;;;5.00;;
77955;SDS011;67152;36.266;32.294;2023-02-28T01:49:40;11.48;;;5.28;;
77955;SDS011;67152;36.266;32.294;2023-02-28T01:52:06;7.38;;;4.18;;
77955;SDS011;67152;36.266;32.294;2023-02-28T01:54:34;14.00;;;6.70;;
77955;SDS011;67152;36.266;32.294;2023-02-28T01:57:02;15.15;;;5.85;;
77955;SDS011;67152;36.266;32.294;2023-02-28T01:59:38;11.35;;;4.70;;
77955;SDS011;67152;36.266;32.294;2023-02-28T02:02:15;12.80;;;4.72;;
77955;SDS011;67152;36.266;32.294;2023-02-28T02:04:46;13.05;;;5.40;;
77955;SDS011;67152;36.266;32.294;2023-02-28T02:07:20;13.60;;;6.55;;
77955;SDS011;67152;36.266;32.294;2023-02-28T02:09:47;12.68;;;5.38;;
77955;SDS011;67152;36.266;32.294;2023-02-28T02:12:19;18.48;;;6.88;;
77955;SDS011;67152;36.266;32.294;2023-02-28T02:15:10;8.55;;;5.72;;
77955;SDS011;67152;36.266;32.294;2023-02-28T02:17:51;12.40;;;6.10;;
77955;SDS011;67152;36.266;32.294;2023-02-28T02:34:24;13.73;;;6.22;;
77955;SDS011;67152;36.266;32.294;2023-02-28T02:45:17;11.27;;;4.32;;
77955;SDS011;67152;36.266;32.294;2023-02-28T02:47:46;8.88;;;4.68;;
77955;SDS011;67152;36.266;32.294;2023-02-28T02:50:19;8.32;;;5.07;;
77955;SDS011;67152;36.266;32.294;2023-02-28T02:55:19;11.02;;;5.60;;
77955;SDS011;67152;36.266;32.294;2023-02-28T02:57:48;19.90;;;5.65;;
77955;SDS011;67152;36.266;32.294;2023-02-28T03:00:21;11.77;;;6.45;;
77955;SDS011;67152;36.266;32.294;2023-02-28T03:02:51;17.80;;;6.72;;
77955;SDS011;67152;36.266;32.294;2023-02-28T03:05:20;43.15;;;12.07;;
77955;SDS011;67152;36.266;32.294;2023-02-28T03:07:50;21.13;;;7.88;;
77955;SDS011;67152;36.266;32.294;2023-02-28T03:10:27;16.08;;;5.97;;
77955;SDS011;67152;36.266;32.294;2023-02-28T03:27:23;11.93;;;6.28;;
77955;SDS011;67152;36.266;32.294;2023-02-28T03:32:26;14.07;;;6.13;;
77955;SDS011;67152;36.266;32.294;2023-02-28T03:35:22;14.50;;;6.25;;
77955;SDS011;67152;36.266;32.294;2023-02-28T03:37:52;20.15;;;7.00;;
77955;SDS011;67152;36.266;32.294;2023-02-28T03:40:21;13.30;;;5.78;;
77955;SDS011;67152;36.266;32.294;2023-02-28T03:42:52;10.05;;;3.85;;
77955;SDS011;67152;36.266;32.294;2023-02-28T03:45:25;10.27;;;5.68;;
77955;SDS011;67152;36.266;32.294;2023-02-28T03:48:06;10.30;;;6.32;;
77955;SDS011;67152;36.266;32.294;2023-02-28T03:50:40;14.70;;;6.82;;
77955;SDS011;67152;36.266;32.294;2023-02-28T03:53:10;11.38;;;5.80;;
77955;SDS011;67152;36.266;32.294;2023-02-28T03:55:59;13.68;;;6.20;;
77955;SDS011;67152;36.266;32.294;2023-02-28T03:58:41;23.00;;;7.82;;
77955;SDS011;67152;36.266;32.294;2023-02-28T04:01:27;16.65;;;6.47;;
77955;SDS011;67152;36.266;32.294;2023-02-28T04:03:59;12.95;;;7.22;;
77955;SDS011;67152;36.266;32.294;2023-02-28T04:06:26;19.20;;;6.75;;
77955;SDS011;67152;36.266;32.294;2023-02-28T04:08:53;18.53;;;7.90;;
77955;SDS011;67152;36.266;32.294;2023-02-28T04:11:23;14.73;;;4.88;;
77955;SDS011;67152;36.266;32.294;2023-02-28T04:14:01;13.15;;;5.97;;
77955;SDS011;67152;36.266;32.294;2023-02-28T04:16:29;19.05;;;7.65;;
77955;SDS011;67152;36.266;32.294;2023-02-28T04:21:40;21.88;;;7.22;;
77955;SDS011;67152;36.266;32.294;2023-02-28T04:24:09;14.70;;;7.90;;
77955;SDS011;67152;36.266;32.294;2023-02-28T04:26:40;23.48;;;8.73;;
77955;SDS011;67152;36.266;32.294;2023-02-28T04:29:10;22.10;;;8.70;;
77955;SDS011;67152;36.266;32.294;2023-02-28T04:31:38;23.30;;;8.63;;
77955;SDS011;67152;36.266;32.294;2023-02-28T04:34:05;25.60;;;8.25;;
77955;SDS011;67152;36.266;32.294;2023-02-28T04:36:32;24.27;;;7.97;;
77955;SDS011;67152;36.266;32.294;2023-02-28T04:38:59;37.20;;;11.45;;
77955;SDS011;67152;36.266;32.294;2023-02-28T04:41:25;29.77;;;10.68;;
77955;SDS011;67152;36.266;32.294;2023-02-28T04:43:53;36.65;;;10.10;;
77955;SDS011;67152;36.266;32.294;2023-02-28T04:46:19;25.20;;;9.87;;
77955;SDS011;67152;36.266;32.294;2023-02-28T04:48:46;25.27;;;9.25;;
77955;SDS011;67152;36.266;32.294;2023-02-28T04:51:14;11.63;;;7.63;;
77955;SDS011;67152;36.266;32.294;2023-02-28T04:53:41;21.40;;;7.20;;
77955;SDS011;67152;36.266;32.294;2023-02-28T04:56:10;21.65;;;8.75;;
77955;SDS011;67152;36.266;32.294;2023-02-28T04:58:38;23.48;;;8.20;;
77955;SDS011;67152;36.266;32.294;2023-02-28T05:01:06;35.00;;;12.88;;
77955;SDS011;67152;36.266;32.294;2023-02-28T05:03:42;35.83;;;12.75;;
77955;SDS011;67152;36.266;32.294;2023-02-28T05:06:10;34.35;;;16.38;;
77955;SDS011;67152;36.266;32.294;2023-02-28T05:08:37;24.77;;;13.15;;
77955;SDS011;67152;36.266;32.294;2023-02-28T05:11:05;49.50;;;20.60;;
77955;SDS011;67152;36.266;32.294;2023-02-28T05:13:43;44.15;;;18.08;;
77955;SDS011;67152;36.266;32.294;2023-02-28T05:16:10;71.90;;;23.13;;
77955;SDS011;67152;36.266;32.294;2023-02-28T05:18:37;39.47;;;15.50;;
77955;SDS011;67152;36.266;32.294;2023-02-28T05:21:04;31.05;;;11.23;;
77955;SDS011;67152;36.266;32.294;2023-02-28T05:23:31;45.08;;;14.80;;
77955;SDS011;67152;36.266;32.294;2023-02-28T05:28:25;27.10;;;11.77;;
77955;SDS011;67152;36.266;32.294;2023-02-28T05:30:51;40.77;;;12.57;;
77955;SDS011;67152;36.266;32.294;2023-02-28T05:33:18;37.93;;;12.10;;
77955;SDS011;67152;36.266;32.294;2023-02-28T05:35:45;27.17;;;10.00;;
77955;SDS011;67152;36.266;32.294;2023-02-28T05:38:11;21.42;;;11.20;;
77955;SDS011;67152;36.266;32.294;2023-02-28T05:40:38;29.08;;;9.98;;
77955;SDS011;67152;36.266;32.294;2023-02-28T05:43:07;22.20;;;9.10;;
77955;SDS011;67152;36.266;32.294;2023-02-28T05:45:36;28.35;;;10.13;;
77955;SDS011;67152;36.266;32.294;2023-02-28T05:48:03;50.83;;;12.00;;
77955;SDS011;67152;36.266;32.294;2023-02-28T05:50:29;29.87;;;11.67;;
77955;SDS011;67152;36.266;32.294;2023-02-28T05:52:56;35.57;;;13.37;;
77955;SDS011;67152;36.266;32.294;2023-02-28T05:55:23;48.67;;;13.10;;
77955;SDS011;67152;36.266;32.294;2023-02-28T05:57:50;28.77;;;10.52;;
77955;SDS011;67152;36.266;32.294;2023-02-28T06:00:17;49.00;;;11.43;;
77955;SDS011;67152;36.266;32.294;2023-02-28T06:02:44;19.75;;;8.15;;
77955;SDS011;67152;36.266;32.294;2023-02-28T06:05:14;26.48;;;8.98;;
77955;SDS011;67152;36.266;32.294;2023-02-28T06:07:42;26.60;;;9.90;;
77955;SDS011;67152;36.266;32.294;2023-02-28T06:10:10;24.83;;;9.05;;
77955;SDS011;67152;36.266;32.294;2023-02-28T06:12:37;29.25;;;9.70;;
77955;SDS011;67152;36.266;32.294;2023-02-28T06:15:04;29.63;;;9.85;;
77955;SDS011;67152;36.266;32.294;2023-02-28T06:17:31;20.10;;;9.27;;
77955;SDS011;67152;36.266;32.294;2023-02-28T06:19:58;28.13;;;9.52;;
77955;SDS011;67152;36.266;32.294;2023-02-28T06:22:25;27.13;;;9.95;;
77955;SDS011;67152;36.266;32.294;2023-02-28T06:24:51;33.47;;;11.57;;
77955;SDS011;67152;36.266;32.294;2023-02-28T06:27:18;57.55;;;13.68;;
77955;SDS011;67152;36.266;32.294;2023-02-28T06:32:12;28.25;;;10.27;;
77955;SDS011;67152;36.266;32.294;2023-02-28T06:34:39;32.40;;;12.70;;
77955;SDS011;67152;36.266;32.294;2023-02-28T06:37:06;27.30;;;12.07;;
77955;SDS011;67152;36.266;32.294;2023-02-28T06:39:33;25.45;;;11.15;;
77955;SDS011;67152;36.266;32.294;2023-02-28T06:41:59;20.67;;;10.20;;
77955;SDS011;67152;36.266;32.294;2023-02-28T06:44:26;20.98;;;11.05;;
77955;SDS011;67152;36.266;32.294;2023-02-28T06:46:59;35.42;;;12.20;;
77955;SDS011;67152;36.266;32.294;2023-02-28T06:49:25;38.67;;;12.27;;
77955;SDS011;67152;36.266;32.294;2023-02-28T06:54:19;37.97;;;11.50;;
77955;SDS011;67152;36.266;32.294;2023-02-28T06:56:46;30.13;;;11.65;;
77955;SDS011;67152;36.266;32.294;2023-02-28T06:59:13;25.50;;;9.68;;
77955;SDS011;67152;36.266;32.294;2023-02-28T07:01:40;27.05;;;10.25;;
77955;SDS011;67152;36.266;32.294;2023-02-28T07:04:07;33.15;;;10.30;;
77955;SDS011;67152;36.266;32.294;2023-02-28T07:06:33;25.58;;;10.25;;
77955;SDS011;67152;36.266;32.294;2023-02-28T07:09:00;33.70;;;9.95;;
77955;SDS011;67152;36.266;32.294;2023-02-28T07:11:27;45.65;;;11.25;;
77955;SDS011;67152;36.266;32.294;2023-02-28T07:13:55;26.52;;;8.23;;
77955;SDS011;67152;36.266;32.294;2023-02-28T07:16:22;26.73;;;8.20;;
77955;SDS011;67152;36.266;32.294;2023-02-28T07:18:52;37.58;;;9.00;;
77955;SDS011;67152;36.266;32.294;2023-02-28T07:21:20;36.42;;;11.23;;
77955;SDS011;67152;36.266;32.294;2023-02-28T07:23:47;61.90;;;13.15;;
77955;SDS011;67152;36.266;32.294;2023-02-28T07:26:14;35.63;;;12.15;;
77955;SDS011;67152;36.266;32.294;2023-02-28T07:28:43;35.17;;;10.98;;
77955;SDS011;67152;36.266;32.294;2023-02-28T07:31:11;33.60;;;10.65;;
77955;SDS011;67152;36.266;32.294;2023-02-28T07:33:40;28.67;;;10.55;;
77955;SDS011;67152;36.266;32.294;2023-02-28T07:38:35;22.33;;;9.13;;
77955;SDS011;67152;36.266;32.294;2023-02-28T07:41:03;24.67;;;9.60;;
77955;SDS011;67152;36.266;32.294;2023-02-28T07:43:31;35.33;;;10.05;;
77955;SDS011;67152;36.266;32.294;2023-02-28T07:46:10;38.33;;;9.95;;
77955;SDS011;67152;36.266;32.294;2023-02-28T07:48:41;28.70;;;10.10;;
77955;SDS011;67152;36.266;32.294;2023-02-28T07:51:31;47.05;;;11.23;;
77955;SDS011;67152;36.266;32.294;2023-02-28T07:53:58;30.63;;;9.27;;
77955;SDS011;67152;36.266;32.294;2023-02-28T07:56:25;29.00;;;9.68;;
77955;SDS011;67152;36.266;32.294;2023-02-28T07:58:52;28.60;;;10.55;;
77955;SDS011;67152;36.266;32.294;2023-02-28T08:01:19;28.65;;;9.55;;
77955;SDS011;67152;36.266;32.294;2023-02-28T08:06:16;22.10;;;9.55;;
77955;SDS011;67152;36.266;32.294;2023-02-28T08:08:48;22.35;;;10.15;;
77955;SDS011;67152;36.266;32.294;2023-02-28T08:11:16;33.65;;;11.02;;
77955;SDS011;67152;36.266;32.294;2023-02-28T08:13:43;47.13;;;12.32;;
77955;SDS011;67152;36.266;32.294;2023-02-28T08:16:12;43.95;;;11.75;;
77955;SDS011;67152;36.266;32.294;2023-02-28T08:18:48;33.72;;;11.85;;
77955;SDS011;67152;36.266;32.294;2023-02-28T08:21:16;38.58;;;12.10;;
77955;SDS011;67152;36.266;32.294;2023-02-28T08:23:43;29.27;;;11.77;;
77955;SDS011;67152;36.266;32.294;2023-02-28T08:26:12;33.85;;;11.43;;
77955;SDS011;67152;36.266;32.294;2023-02-28T08:28:40;26.95;;;9.07;;
77955;SDS011;67152;36.266;32.294;2023-02-28T08:33:37;30.27;;;10.23;;
77955;SDS011;67152;36.266;32.294;2023-02-28T08:36:05;27.75;;;9.75;;
77955;SDS011;67152;36.266;32.294;2023-02-28T08:38:32;22.42;;;8.98;;
77955;SDS011;67152;36.266;32.294;2023-02-28T08:41:00;46.15;;;7.93;;
77955;SDS011;67152;36.266;32.294;2023-02-28T08:43:33;22.02;;;8.45;;
77955;SDS011;67152;36.266;32.294;2023-02-28T08:46:00;23.27;;;8.30;;
77955;SDS011;67152;36.266;32.294;2023-02-28T08:48:28;22.90;;;7.82;;
77955;SDS011;67152;36.266;32.294;2023-02-28T08:50:57;13.85;;;7.13;;
77955;SDS011;67152;36.266;32.294;2023-02-28T08:53:24;20.67;;;6.90;;
77955;SDS011;67152;36.266;32.294;2023-02-28T08:58:28;15.95;;;6.90;;
77955;SDS011;67152;36.266;32.294;2023-02-28T09:00:55;22.58;;;7.57;;
77955;SDS011;67152;36.266;32.294;2023-02-28T09:05:59;23.60;;;7.38;;
77955;SDS011;67152;36.266;32.294;2023-02-28T09:08:28;17.27;;;7.97;;
77955;SDS011;67152;36.266;32.294;2023-02-28T09:10:56;17.73;;;8.00;;
77955;SDS011;67152;36.266;32.294;2023-02-28T09:13:24;14.02;;;7.22;;
77955;SDS011;67152;36.266;32.294;2023-02-28T09:15:52;20.63;;;7.78;;
77955;SDS011;67152;36.266;32.294;2023-02-28T09:18:20;15.27;;;7.45;;
77955;SDS011;67152;36.266;32.294;2023-02-28T09:20:47;18.35;;;7.68;;
77955;SDS011;67152;36.266;32.294;2023-02-28T09:23:13;27.05;;;8.30;;
77955;SDS011;67152;36.266;32.294;2023-02-28T09:28:18;21.95;;;8.77;;
77955;SDS011;67152;36.266;32.294;2023-02-28T09:30:45;18.52;;;7.82;;
77955;SDS011;67152;36.266;32.294;2023-02-28T09:33:14;23.02;;;8.15;;
77955;SDS011;67152;36.266;32.294;2023-02-28T09:35:41;18.55;;;7.53;;
77955;SDS011;67152;36.266;32.294;2023-02-28T09:38:09;16.80;;;7.82;;
77955;SDS011;67152;36.266;32.294;2023-02-28T09:40:37;36.45;;;8.43;;
77955;SDS011;67152;36.266;32.294;2023-02-28T09:43:15;22.90;;;8.27;;
77955;SDS011;67152;36.266;32.294;2023-02-28T09:45:47;18.88;;;7.85;;
77955;SDS011;67152;36.266;32.294;2023-02-28T09:48:18;30.95;;;8.23;;
77955;SDS011;67152;36.266;32.294;2023-02-28T09:50:49;21.27;;;8.35;;
77955;SDS011;67152;36.266;32.294;2023-02-28T09:53:26;14.23;;;8.65;;
77955;SDS011;67152;36.266;32.294;2023-02-28T09:56:07;19.05;;;8.10;;
77955;SDS011;67152;36.266;32.294;2023-02-28T10:03:57;18.05;;;8.40;;
77955;SDS011;67152;36.266;32.294;2023-02-28T10:06:30;54.45;;;10.45;;
77955;SDS011;67152;36.266;32.294;2023-02-28T10:09:11;17.35;;;8.38;;
77955;SDS011;67152;36.266;32.294;2023-02-28T10:11:52;15.23;;;8.73;;
77955;SDS011;67152;36.266;32.294;2023-02-28T10:14:23;26.08;;;9.10;;
77955;SDS011;67152;36.266;32.294;2023-02-28T10:19:56;21.98;;;8.82;;
77955;SDS011;67152;36.266;32.294;2023-02-28T10:22:30;21.23;;;8.80;;
77955;SDS011;67152;36.266;32.294;2023-02-28T10:25:00;14.55;;;9.48;;
77955;SDS011;67152;36.266;32.294;2023-02-28T10:27:34;18.40;;;8.02;;
77955;SDS011;67152;36.266;32.294;2023-02-28T10:30:02;19.58;;;8.43;;
77955;SDS011;67152;36.266;32.294;2023-02-28T10:32:34;61.40;;;9.30;;
77955;SDS011;67152;36.266;32.294;2023-02-28T10:37:41;45.85;;;10.15;;
77955;SDS011;67152;36.266;32.294;2023-02-28T10:45:29;19.67;;;8.32;;
77955;SDS011;67152;36.266;32.294;2023-02-28T10:47:58;15.73;;;8.18;;
77955;SDS011;67152;36.266;32.294;2023-02-28T10:50:28;19.30;;;8.60;;
77955;SDS011;67152;36.266;32.294;2023-02-28T10:53:12;23.40;;;8.98;;
77955;SDS011;67152;36.266;32.294;2023-02-28T10:58:27;26.55;;;10.02;;
77955;SDS011;67152;36.266;32.294;2023-02-28T11:00:58;22.98;;;8.68;;
77955;SDS011;67152;36.266;32.294;2023-02-28T11:03:30;38.15;;;9.98;;
77955;SDS011;67152;36.266;32.294;2023-02-28T11:06:05;362.40;;;25.10;;
77955;SDS011;67152;36.266;32.294;2023-02-28T11:08:34;24.85;;;8.85;;
77955;SDS011;67152;36.266;32.294;2023-02-28T11:11:22;44.63;;;9.85;;
77955;SDS011;67152;36.266;32.294;2023-02-28T11:13:56;21.25;;;9.50;;
77955;SDS011;67152;36.266;32.294;2023-02-28T11:16:31;20.25;;;9.18;;
77955;SDS011;67152;36.266;32.294;2023-02-28T11:19:00;19.60;;;9.07;;
77955;SDS011;67152;36.266;32.294;2023-02-28T11:21:31;20.65;;;9.95;;
77955;SDS011;67152;36.266;32.294;2023-02-28T11:26:39;23.63;;;10.38;;
77955;SDS011;67152;36.266;32.294;2023-02-28T11:34:47;16.27;;;8.88;;
77955;SDS011;67152;36.266;32.294;2023-02-28T11:37:31;20.33;;;10.15;;
77955;SDS011;67152;36.266;32.294;2023-02-28T11:39:58;16.80;;;9.43;;
77955;SDS011;67152;36.266;32.294;2023-02-28T11:59:28;20.83;;;10.68;;
77955;SDS011;67152;36.266;32.294;2023-02-28T12:02:23;17.52;;;9.38;;
77955;SDS011;67152;36.266;32.294;2023-02-28T12:07:25;26.30;;;10.60;;
77955;SDS011;67152;36.266;32.294;2023-02-28T12:10:20;23.88;;;10.50;;
77955;SDS011;67152;36.266;32.294;2023-02-28T12:24:21;20.42;;;10.55;;
77955;SDS011;67152;36.266;32.294;2023-02-28T12:26:50;27.33;;;11.07;;
77955;SDS011;67152;36.266;32.294;2023-02-28T12:29:23;36.38;;;11.30;;
77955;SDS011;67152;36.266;32.294;2023-02-28T12:34:55;20.85;;;11.00;;
77955;SDS011;67152;36.266;32.294;2023-02-28T12:37:31;20.85;;;9.63;;
77955;SDS011;67152;36.266;32.294;2023-02-28T12:40:05;17.33;;;11.13;;
77955;SDS011;67152;36.266;32.294;2023-02-28T12:42:39;21.23;;;11.43;;
77955;SDS011;67152;36.266;32.294;2023-02-28T12:45:12;23.30;;;11.27;;
77955;SDS011;67152;36.266;32.294;2023-02-28T12:48:02;20.63;;;10.80;;
77955;SDS011;67152;36.266;32.294;2023-02-28T12:50:31;19.80;;;11.30;;
77955;SDS011;67152;36.266;32.294;2023-02-28T12:55:41;33.33;;;12.45;;
77955;SDS011;67152;36.266;32.294;2023-02-28T12:58:14;22.38;;;11.30;;
77955;SDS011;67152;36.266;32.294;2023-02-28T13:00:50;25.08;;;11.80;;
77955;SDS011;67152;36.266;32.294;2023-02-28T13:17:12;30.67;;;11.85;;
77955;SDS011;67152;36.266;32.294;2023-02-28T13:24:49;30.30;;;12.20;;
77955;SDS011;67152;36.266;32.294;2023-02-28T13:29:53;21.95;;;11.88;;
77955;SDS011;67152;36.266;32.294;2023-02-28T13:32:33;19.95;;;11.52;;
77955;SDS011;67152;36.266;32.294;2023-02-28T13:37:41;16.70;;;10.63;;
77955;SDS011;67152;36.266;32.294;2023-02-28T13:42:46;26.15;;;11.45;;
77955;SDS011;67152;36.266;32.294;2023-02-28T13:45:22;69.75;;;12.88;;
77955;SDS011;67152;36.266;32.294;2023-02-28T13:47:54;50.78;;;13.30;;
77955;SDS011;67152;36.266;32.294;2023-02-28T13:55:28;17.77;;;10.80;;
77955;SDS011;67152;36.266;32.294;2023-02-28T13:58:07;26.95;;;12.95;;
77955;SDS011;67152;36.266;32.294;2023-02-28T14:00:44;37.50;;;11.82;;
77955;SDS011;67152;36.266;32.294;2023-02-28T14:03:26;26.05;;;12.65;;
77955;SDS011;67152;36.266;32.294;2023-02-28T14:09:15;22.60;;;11.80;;
77955;SDS011;67152;36.266;32.294;2023-02-28T14:11:53;17.70;;;11.50;;
77955;SDS011;67152;36.266;32.294;2023-02-28T14:17:03;26.55;;;12.88;;
77955;SDS011;67152;36.266;32.294;2023-02-28T14:19:35;24.95;;;11.13;;
77955;SDS011;67152;36.266;32.294;2023-02-28T14:25:05;27.57;;;11.73;;
77955;SDS011;67152;36.266;32.294;2023-02-28T14:36:44;34.95;;;12.77;;
77955;SDS011;67152;36.266;32.294;2023-02-28T14:39:12;33.80;;;12.38;;
77955;SDS011;67152;36.266;32.294;2023-02-28T14:41:45;20.48;;;11.82;;
77955;SDS011;67152;36.266;32.294;2023-02-28T14:44:14;26.27;;;12.82;;
77955;SDS011;67152;36.266;32.294;2023-02-28T14:47:01;21.75;;;12.07;;
77955;SDS011;67152;36.266;32.294;2023-02-28T14:49:35;42.55;;;13.18;;
77955;SDS011;67152;36.266;32.294;2023-02-28T14:54:58;32.55;;;13.73;;
77955;SDS011;67152;36.266;32.294;2023-02-28T14:57:28;28.67;;;14.32;;
77955;SDS011;67152;36.266;32.294;2023-02-28T15:02:44;31.25;;;13.70;;
77955;SDS011;67152;36.266;32.294;2023-02-28T15:07:38;33.53;;;14.55;;
77955;SDS011;67152;36.266;32.294;2023-02-28T15:10:10;44.03;;;16.30;;
77955;SDS011;67152;36.266;32.294;2023-02-28T15:12:56;30.88;;;14.98;;
77955;SDS011;67152;36.266;32.294;2023-02-28T15:15:33;27.50;;;12.50;;
77955;SDS011;67152;36.266;32.294;2023-02-28T15:18:04;30.65;;;12.63;;
77955;SDS011;67152;36.266;32.294;2023-02-28T15:20:32;34.35;;;12.48;;
77955;SDS011;67152;36.266;32.294;2023-02-28T15:25:26;28.05;;;11.00;;
77955;SDS011;67152;36.266;32.294;2023-02-28T15:27:54;38.50;;;11.20;;
77955;SDS011;67152;36.266;32.294;2023-02-28T15:30:24;36.22;;;11.68;;
77955;SDS011;67152;36.266;32.294;2023-02-28T15:35:40;27.10;;;11.38;;
77955;SDS011;67152;36.266;32.294;2023-02-28T15:40:51;63.85;;;15.20;;
77955;SDS011;67152;36.266;32.294;2023-02-28T15:43:24;87.78;;;17.27;;
77955;SDS011;67152;36.266;32.294;2023-02-28T15:51:12;82.68;;;19.17;;
77955;SDS011;67152;36.266;32.294;2023-02-28T15:53:50;62.83;;;17.50;;
77955;SDS011;67152;36.266;32.294;2023-02-28T15:56:27;174.82;;;86.68;;
77955;SDS011;67152;36.266;32.294;2023-02-28T15:58:56;128.77;;;55.08;;
77955;SDS011;67152;36.266;32.294;2023-02-28T16:01:47;93.07;;;33.05;;
77955;SDS011;67152;36.266;32.294;2023-02-28T16:04:27;91.65;;;37.72;;
77955;SDS011;67152;36.266;32.294;2023-02-28T16:09:24;81.33;;;33.37;;
77955;SDS011;67152;36.266;32.294;2023-02-28T16:11:54;72.63;;;31.13;;
77955;SDS011;67152;36.266;32.294;2023-02-28T16:14:26;69.80;;;30.73;;
77955;SDS011;67152;36.266;32.294;2023-02-28T16:16:57;68.57;;;25.63;;
77955;SDS011;67152;36.266;32.294;2023-02-28T16:19:29;57.05;;;26.17;;
77955;SDS011;67152;36.266;32.294;2023-02-28T16:21:57;63.45;;;25.27;;
77955;SDS011;67152;36.266;32.294;2023-02-28T16:24:24;74.97;;;27.55;;
77955;SDS011;67152;36.266;32.294;2023-02-28T16:26:53;101.88;;;26.40;;
77955;SDS011;67152;36.266;32.294;2023-02-28T16:31:52;79.15;;;37.88;;
77955;SDS011;67152;36.266;32.294;2023-02-28T16:34:20;78.28;;;40.88;;
77955;SDS011;67152;36.266;32.294;2023-02-28T16:36:48;82.80;;;46.47;;
77955;SDS011;67152;36.266;32.294;2023-02-28T16:39:16;105.35;;;52.72;;
77955;SDS011;67152;36.266;32.294;2023-02-28T16:41:44;125.20;;;58.78;;
77955;SDS011;67152;36.266;32.294;2023-02-28T16:46:55;114.45;;;60.22;;
77955;SDS011;67152;36.266;32.294;2023-02-28T16:49:22;124.53;;;71.07;;
77955;SDS011;67152;36.266;32.294;2023-02-28T16:51:49;158.30;;;83.20;;
77955;SDS011;67152;36.266;32.294;2023-02-28T16:54:16;177.05;;;85.60;;
77955;SDS011;67152;36.266;32.294;2023-02-28T16:56:44;144.93;;;80.53;;
77955;SDS011;67152;36.266;32.294;2023-02-28T16:59:13;118.15;;;63.33;;
77955;SDS011;67152;36.266;32.294;2023-02-28T17:01:44;114.13;;;56.28;;
77955;SDS011;67152;36.266;32.294;2023-02-28T17:04:11;115.38;;;47.75;;
77955;SDS011;67152;36.266;32.294;2023-02-28T17:06:40;112.22;;;55.38;;
77955;SDS011;67152;36.266;32.294;2023-02-28T17:09:18;131.38;;;62.08;;
77955;SDS011;67152;36.266;32.294;2023-02-28T17:11:50;140.80;;;67.95;;
77955;SDS011;67152;36.266;32.294;2023-02-28T17:16:44;125.15;;;66.97;;
77955;SDS011;67152;36.266;32.294;2023-02-28T17:19:13;133.90;;;72.80;;
77955;SDS011;67152;36.266;32.294;2023-02-28T17:21:41;142.57;;;68.70;;
77955;SDS011;67152;36.266;32.294;2023-02-28T17:24:09;128.50;;;66.63;;
77955;SDS011;67152;36.266;32.294;2023-02-28T17:26:39;87.85;;;47.80;;
77955;SDS011;67152;36.266;32.294;2023-02-28T17:29:18;90.13;;;44.88;;
77955;SDS011;67152;36.266;32.294;2023-02-28T17:31:47;76.07;;;37.35;;
77955;SDS011;67152;36.266;32.294;2023-02-28T17:34:15;65.25;;;37.22;;
77955;SDS011;67152;36.266;32.294;2023-02-28T17:36:44;72.57;;;32.30;;
77955;SDS011;67152;36.266;32.294;2023-02-28T17:39:13;67.28;;;31.35;;
77955;SDS011;67152;36.266;32.294;2023-02-28T17:41:41;57.15;;;29.63;;
77955;SDS011;67152;36.266;32.294;2023-02-28T17:44:09;69.93;;;30.20;;
77955;SDS011;67152;36.266;32.294;2023-02-28T17:46:59;62.50;;;29.52;;
77955;SDS011;67152;36.266;32.294;2023-02-28T17:49:27;77.68;;;29.60;;
77955;SDS011;67152;36.266;32.294;2023-02-28T17:51:54;61.38;;;27.63;;
77955;SDS011;67152;36.266;32.294;2023-02-28T17:54:21;55.03;;;22.42;;
77955;SDS011;67152;36.266;32.294;2023-02-28T17:56:48;56.67;;;26.60;;
77955;SDS011;67152;36.266;32.294;2023-02-28T17:59:15;65.07;;;33.97;;
77955;SDS011;67152;36.266;32.294;2023-02-28T18:01:43;48.22;;;22.90;;
77955;SDS011;67152;36.266;32.294;2023-02-28T18:04:10;52.15;;;24.65;;
77955;SDS011;67152;36.266;32.294;2023-02-28T18:06:41;49.90;;;22.67;;
77955;SDS011;67152;36.266;32.294;2023-02-28T18:09:17;43.45;;;20.95;;